Queen Of Cowichan — CZ4990 — position and weather

sailwx.info

Track history (hours):
 
Tides and Currents Weather Stations Pressure Air Temp Water Temp Dewpoint Dewpoint Depression Visibility Wind Speed Wind Dir Waves Ship Positions

Queen Of Cowichan

Last reported at 2017-Mar-24 21:33 UTC. Time now 2017-Mar-24 22:06 UTC.
Position N 49°12' W 123°57'.

Length 139 m.

Type: Passenger vessel. MMSI: 316001251.

Date/timePositionNaut miles runAvg speedWind from/ knotsBaromVisibWave heightAir tempDewpointWater temp
2017-Mar-24 21:33N 49°12' W 123°57'1514.8
2017-Mar-24 20:34N 49°18' W 123°37'1414.2
2017-Mar-24 19:33N 49°23' W 123°16'1010.1
2017-Mar-24 18:33N 49°17' W 123°30'1919.0
2017-Mar-24 17:33N 49°12' W 123°57'10 9.6
2017-Mar-24 16:34N 49°16' W 123°44'1919.5
2017-Mar-24 15:34N 49°23' W 123°16'8 8.2
2017-Mar-24 14:33N 49°18' W 123°27'2120.6
2017-Mar-24 13:33N 49°12' W 123°57'1 0.7
2017-Mar-24 12:29N 49°12' W 123°57'0 0.0
2017-Mar-24 11:29N 49°12' W 123°57'0 0.0
2017-Mar-24 10:05N 49°12' W 123°57'0 0.0
2017-Mar-24 09:29N 49°12' W 123°57'0 0.0
2017-Mar-24 07:29N 49°12' W 123°57'0 0.0
2017-Mar-24 06:29N 49°12' W 123°57'1 0.8
2017-Mar-24 05:33N 49°12' W 123°57'2120.7
2017-Mar-24 04:34N 49°19' W 123°27'6 5.8
2017-Mar-24 03:33N 49°22' W 123°19'2019.8
2017-Mar-24 02:33N 49°14' W 123°47'5 4.6
2017-Mar-24 01:32N 49°13' W 123°54'2020.0
2017-Mar-24 00:33N 49°19' W 123°26'7 7.2
2017-Mar-23 23:33N 49°23' W 123°16'1818.0
2017-Mar-23 22:33N 49°15' W 123°42'1110.9
2017-Mar-23 21:33N 49°12' W 123°57'1212.5
2017-Mar-23 20:33N 49°17' W 123°40'1616.5
2017-Mar-23 19:33N 49°23' W 123°16'9 8.8
2017-Mar-23 18:33N 49°18' W 123°28'2020.2
2017-Mar-23 17:34N 49°12' W 123°57'9 9.4
2017-Mar-23 16:33N 49°16' W 123°44'1919.3
2017-Mar-23 15:34N 49°23' W 123°17'8 8.3
2017-Mar-23 14:33N 49°18' W 123°27'2120.6
2017-Mar-23 13:33N 49°12' W 123°57'0 0.3
2017-Mar-23 12:06N 49°12' W 123°57'0 0.0
2017-Mar-23 10:27N 49°12' W 123°57'1 0.1
2017-Mar-23 06:34N 49°12' W 123°57'2020.1
2017-Mar-23 05:33N 49°18' W 123°28'6 5.7
2017-Mar-23 04:33N 49°21' W 123°20'2120.5
2017-Mar-23 03:33N 49°14' W 123°50'1 1.0
2017-Mar-23 02:33N 49°14' W 123°51'1919.5
2017-Mar-23 01:34N 49°20' W 123°23'4 4.2
2017-Mar-23 00:34N 49°23' W 123°18'2019.6
2017-Mar-22 23:33N 49°14' W 123°45'8 8.2
2017-Mar-22 22:33N 49°12' W 123°57'1818.6
2017-Mar-22 21:33N 49°18' W 123°31'1010.4
2017-Mar-22 20:33N 49°23' W 123°16'0 0.0
2017-Mar-22 19:33N 49°23' W 123°16'9 9.3
2017-Mar-22 18:33N 49°18' W 123°28'2019.6
2017-Mar-22 17:33N 49°12' W 123°57'10 9.6
2017-Mar-22 16:33N 49°16' W 123°44'1919.5
2017-Mar-22 15:33N 49°23' W 123°16'8 8.2
2017-Mar-22 14:33N 49°18' W 123°27'2120.5
2017-Mar-22 13:33N 49°12' W 123°57'1 0.7
2017-Mar-22 12:25N 49°12' W 123°57'0 0.0
2017-Mar-22 08:19N 49°12' W 123°57'0 0.0
2017-Mar-22 06:25N 49°12' W 123°57'0 0.1
2017-Mar-22 05:33N 49°12' W 123°57'2019.6
2017-Mar-22 04:33N 49°18' W 123°29'10 9.5
2017-Mar-22 03:34N 49°23' W 123°17'2019.5
2017-Mar-22 02:33N 49°15' W 123°44'7 7.5
2017-Mar-22 01:33N 49°13' W 123°55'2020.2
2017-Mar-22 00:34N 49°19' W 123°25'7 7.0
2017-Mar-21 23:33N 49°23' W 123°17'1919.2
2017-Mar-21 22:33N 49°15' W 123°43'10 9.7
2017-Mar-21 21:33N 49°12' W 123°57'1313.4
2017-Mar-21 20:33N 49°17' W 123°38'1615.6
2017-Mar-21 19:34N 49°23' W 123°16'8 8.5
2017-Mar-21 18:34N 49°18' W 123°27'2020.1
2017-Mar-21 17:33N 49°12' W 123°57'9 8.7
2017-Mar-21 16:34N 49°16' W 123°45'2019.8
2017-Mar-21 15:34N 49°23' W 123°17'8 7.6
2017-Mar-21 14:33N 49°19' W 123°26'2120.7
2017-Mar-21 13:33N 49°12' W 123°57'1 0.9
2017-Mar-21 12:32N 49°12' W 123°57'0 0.0
2017-Mar-21 11:32N 49°12' W 123°57'0 0.0
2017-Mar-21 10:32N 49°12' W 123°57'0 0.0
2017-Mar-21 09:32N 49°12' W 123°57'0 0.0
2017-Mar-21 08:17N 49°12' W 123°57'0 0.0
2017-Mar-21 07:08N 49°12' W 123°57'0 0.0
2017-Mar-21 06:32N 49°12' W 123°57'2 2.1
2017-Mar-21 05:34N 49°13' W 123°55'2120.6
2017-Mar-21 04:34N 49°19' W 123°25'4 4.2
2017-Mar-21 03:33N 49°22' W 123°19'2020.1
2017-Mar-21 02:33N 49°14' W 123°48'4 4.0
2017-Mar-21 01:33N 49°13' W 123°54'2020.0
2017-Mar-21 00:33N 49°19' W 123°25'7 6.8
2017-Mar-20 23:34N 49°23' W 123°16'1918.7
2017-Mar-20 22:33N 49°15' W 123°42'1010.2
2017-Mar-20 21:32N 49°12' W 123°57'1414.1
2017-Mar-20 20:33N 49°17' W 123°38'1515.1
2017-Mar-20 19:34N 49°23' W 123°16'1010.0
2017-Mar-20 18:33N 49°17' W 123°29'1919.2
2017-Mar-20 17:33N 49°12' W 123°57'10 9.7
2017-Mar-20 16:33N 49°16' W 123°44'1919.4
2017-Mar-20 15:33N 49°23' W 123°16'8 8.3
2017-Mar-20 14:33N 49°18' W 123°27'2120.7
2017-Mar-20 13:33N 49°12' W 123°57'1 0.1
2017-Mar-20 09:33N 49°12' W 123°57'0 0.0
2017-Mar-20 08:27N 49°12' W 123°57'0 0.0
2017-Mar-20 07:27N 49°12' W 123°57'0 0.0
2017-Mar-20 06:33N 49°12' W 123°57'9 9.1
2017-Mar-20 05:33N 49°16' W 123°45'2019.7
2017-Mar-20 04:34N 49°23' W 123°17'8 8.3
2017-Mar-20 03:33N 49°18' W 123°27'2020.1
2017-Mar-20 02:33N 49°12' W 123°57'3 3.2
2017-Mar-20 01:33N 49°14' W 123°53'2020.1
2017-Mar-20 00:33N 49°20' W 123°23'6 5.7
2017-Mar-19 23:34N 49°23' W 123°17'2019.6
2017-Mar-19 22:33N 49°15' W 123°44'9 9.3
2017-Mar-19 21:33N 49°12' W 123°57'1413.8
2017-Mar-19 20:33N 49°17' W 123°38'1515.2
2017-Mar-19 19:33N 49°23' W 123°16'9 9.2
2017-Mar-19 18:33N 49°18' W 123°28'2019.9
2017-Mar-19 17:33N 49°12' W 123°57'9 8.9
2017-Mar-19 16:33N 49°16' W 123°45'2019.9
2017-Mar-19 15:34N 49°23' W 123°17'8 7.8
2017-Mar-19 14:34N 49°18' W 123°26'2120.6
2017-Mar-19 13:33N 49°12' W 123°57'1 0.7
2017-Mar-19 12:25N 49°12' W 123°57'0 0.0
2017-Mar-19 11:31N 49°12' W 123°57'0 0.0
2017-Mar-19 10:31N 49°12' W 123°57'0 0.0
2017-Mar-19 09:31N 49°12' W 123°57'0 0.0
2017-Mar-19 08:31N 49°12' W 123°57'0 0.0
2017-Mar-19 07:31N 49°12' W 123°57'0 0.0
2017-Mar-19 06:31N 49°12' W 123°57'0 0.4
2017-Mar-19 05:34N 49°12' W 123°57'2020.3
2017-Mar-19 04:34N 49°19' W 123°28'9 8.6
2017-Mar-19 03:33N 49°23' W 123°16'1918.6
2017-Mar-19 02:33N 49°15' W 123°42'1010.3
2017-Mar-19 01:33N 49°12' W 123°57'2019.9
2017-Mar-19 00:34N 49°19' W 123°29'9 8.9
2017-Mar-18 23:34N 49°23' W 123°16'1818.2
2017-Mar-18 22:33N 49°15' W 123°42'1110.8
2017-Mar-18 21:33N 49°12' W 123°57'1211.9
2017-Mar-18 20:34N 49°16' W 123°41'1717.1
2017-Mar-18 19:34N 49°23' W 123°16'10 9.7
2017-Mar-18 18:33N 49°17' W 123°29'1919.1
2017-Mar-18 17:33N 49°12' W 123°57'9 9.6
2017-Mar-18 16:33N 49°16' W 123°44'1919.5
2017-Mar-18 15:33N 49°23' W 123°17'8 7.8
2017-Mar-18 14:33N 49°18' W 123°26'2120.8
2017-Mar-18 13:33N 49°12' W 123°57'1 0.7
2017-Mar-18 12:24N 49°12' W 123°57'0 0.0
2017-Mar-18 11:29N 49°12' W 123°57'0 0.0
2017-Mar-18 10:33N 49°12' W 123°57'0 0.0
2017-Mar-18 09:32N 49°12' W 123°57'0 0.0
2017-Mar-18 08:33N 49°12' W 123°57'0 0.0
2017-Mar-18 07:32N 49°12' W 123°57'0 0.0
2017-Mar-18 06:29N 49°12' W 123°57'1212.4
2017-Mar-18 05:33N 49°17' W 123°41'1717.4
2017-Mar-18 04:34N 49°23' W 123°16'1010.4
2017-Mar-18 03:33N 49°17' W 123°30'1918.7
2017-Mar-18 02:33N 49°12' W 123°57'8 8.4
2017-Mar-18 01:34N 49°16' W 123°46'2019.9
2017-Mar-18 00:33N 49°23' W 123°17'4 3.9
2017-Mar-17 23:33N 49°20' W 123°21'2020.2
2017-Mar-17 22:33N 49°14' W 123°51'4 3.8
2017-Mar-17 21:33N 49°12' W 123°56'2020.0
2017-Mar-17 20:34N 49°19' W 123°27'8 8.0
2017-Mar-17 19:34N 49°23' W 123°16'1010.4
2017-Mar-17 18:33N 49°17' W 123°30'1918.7
2017-Mar-17 17:33N 49°12' W 123°57'1010.3
2017-Mar-17 16:33N 49°16' W 123°43'1918.8
2017-Mar-17 15:33N 49°23' W 123°16'8 8.4
2017-Mar-17 14:34N 49°18' W 123°27'2120.5
2017-Mar-17 13:33N 49°12' W 123°57'0 0.4
2017-Mar-17 12:33N 49°12' W 123°57'0 0.0
2017-Mar-17 11:21N 49°12' W 123°57'0 0.0
2017-Mar-17 10:33N 49°12' W 123°57'0 0.0
2017-Mar-17 09:33N 49°12' W 123°57'0 0.0
2017-Mar-17 08:33N 49°12' W 123°57'0 0.0
2017-Mar-17 07:33N 49°12' W 123°57'0 0.0
2017-Mar-17 06:33N 49°12' W 123°57'5 4.9
2017-Mar-17 05:33N 49°14' W 123°51'2020.7
2017-Mar-17 04:34N 49°20' W 123°21'0 0.4
2017-Mar-17 03:34N 49°20' W 123°20'2020.4
2017-Mar-17 02:34N 49°14' W 123°50'1 1.4
2017-Mar-17 01:33N 49°14' W 123°52'2020.0
2017-Mar-17 00:33N 49°20' W 123°23'5 5.5
2017-Mar-16 23:34N 49°23' W 123°16'1919.1
2017-Mar-16 22:33N 49°15' W 123°43'1010.0
2017-Mar-16 21:33N 49°12' W 123°57'1010.3
2017-Mar-16 20:34N 49°16' W 123°43'1918.7
2017-Mar-16 19:33N 49°23' W 123°16'8 8.4
2017-Mar-16 18:33N 49°18' W 123°27'2020.4
2017-Mar-16 17:33N 49°12' W 123°57'9 9.1
2017-Mar-16 16:33N 49°16' W 123°44'2019.6
2017-Mar-16 15:34N 49°23' W 123°16'8 8.4
2017-Mar-16 14:33N 49°18' W 123°27'2020.2
2017-Mar-16 13:33N 49°12' W 123°57'1 0.8
2017-Mar-16 12:32N 49°12' W 123°57'0 0.0
2017-Mar-16 10:17N 49°12' W 123°57'0 0.0
2017-Mar-16 09:32N 49°12' W 123°57'0 0.0
2017-Mar-16 08:32N 49°12' W 123°57'0 0.0
2017-Mar-16 07:32N 49°12' W 123°57'0 0.0
2017-Mar-16 06:29N 49°12' W 123°57'1 1.5
2017-Mar-16 05:34N 49°13' W 123°56'2020.3
2017-Mar-16 04:34N 49°19' W 123°26'6 5.8
2017-Mar-16 03:34N 49°22' W 123°19'2019.6
2017-Mar-16 02:33N 49°14' W 123°47'5 4.8
2017-Mar-16 01:33N 49°13' W 123°54'2020.4
2017-Mar-16 00:33N 49°19' W 123°24'6 6.1
2017-Mar-15 23:34N 49°23' W 123°16'1918.7
2017-Mar-15 22:33N 49°15' W 123°43'1010.4
2017-Mar-15 21:33N 49°12' W 123°57'1313.0
2017-Mar-15 20:33N 49°17' W 123°39'1616.0
2017-Mar-15 19:33N 49°23' W 123°16'1010.4
2017-Mar-15 18:34N 49°18' W 123°30'1918.6
2017-Mar-15 17:33N 49°12' W 123°57'1110.9
2017-Mar-15 16:33N 49°16' W 123°42'1818.2
2017-Mar-15 15:33N 49°23' W 123°16'1111.2
2017-Mar-15 14:33N 49°18' W 123°32'1817.7
2017-Mar-15 13:33N 49°12' W 123°57'0 0.0
2017-Mar-15 12:30N 49°12' W 123°57'0 0.0
2017-Mar-15 11:30N 49°12' W 123°57'0 0.0
2017-Mar-15 10:30N 49°12' W 123°57'0 0.0
2017-Mar-15 09:30N 49°12' W 123°57'0 0.0
2017-Mar-15 08:30N 49°12' W 123°57'0 0.0
2017-Mar-15 07:30N 49°12' W 123°57'0 0.0
2017-Mar-15 06:30N 49°12' W 123°57'1 0.6
2017-Mar-15 05:33N 49°12' W 123°57'2019.8
2017-Mar-15 04:33N 49°19' W 123°28'9 8.5
2017-Mar-15 03:34N 49°23' W 123°17'2020.0
2017-Mar-15 02:34N 49°15' W 123°45'7 6.9
2017-Mar-15 01:33N 49°13' W 123°55'2019.9
2017-Mar-15 00:33N 49°19' W 123°27'8 7.8
2017-Mar-14 23:33N 49°23' W 123°16'1918.9
2017-Mar-14 22:33N 49°16' W 123°43'1010.0
2017-Mar-14 21:33N 49°12' W 123°57'  
Track history (hours):
 
Tides and Currents Weather Stations Pressure Air Temp Water Temp Dewpoint Dewpoint Depression Visibility Wind Speed Wind Dir Waves Ship Positions

Queen Of Cowichan

Last reported at 2017-Mar-24 21:33 UTC. Time now 2017-Mar-24 22:06 UTC.
Position N 49°12' W 123°57'.

Length 139 m.

Type: Passenger vessel. MMSI: 316001251.

Date/timePositionNaut miles runAvg speedWind from/ knotsBaromVisibWave heightAir tempDewpointWater temp
2017-Mar-24 21:33N 49°12' W 123°57'1514.8
2017-Mar-24 20:34N 49°18' W 123°37'1414.2
2017-Mar-24 19:33N 49°23' W 123°16'1010.1
2017-Mar-24 18:33N 49°17' W 123°30'1919.0
2017-Mar-24 17:33N 49°12' W 123°57'10 9.6
2017-Mar-24 16:34N 49°16' W 123°44'1919.5
2017-Mar-24 15:34N 49°23' W 123°16'8 8.2
2017-Mar-24 14:33N 49°18' W 123°27'2120.6
2017-Mar-24 13:33N 49°12' W 123°57'1 0.7
2017-Mar-24 12:29N 49°12' W 123°57'0 0.0
2017-Mar-24 11:29N 49°12' W 123°57'0 0.0
2017-Mar-24 10:05N 49°12' W 123°57'0 0.0
2017-Mar-24 09:29N 49°12' W 123°57'0 0.0
2017-Mar-24 07:29N 49°12' W 123°57'0 0.0
2017-Mar-24 06:29N 49°12' W 123°57'1 0.8
2017-Mar-24 05:33N 49°12' W 123°57'2120.7
2017-Mar-24 04:34N 49°19' W 123°27'6 5.8
2017-Mar-24 03:33N 49°22' W 123°19'2019.8
2017-Mar-24 02:33N 49°14' W 123°47'5 4.6
2017-Mar-24 01:32N 49°13' W 123°54'2020.0
2017-Mar-24 00:33N 49°19' W 123°26'7 7.2
2017-Mar-23 23:33N 49°23' W 123°16'1818.0
2017-Mar-23 22:33N 49°15' W 123°42'1110.9
2017-Mar-23 21:33N 49°12' W 123°57'1212.5
2017-Mar-23 20:33N 49°17' W 123°40'1616.5
2017-Mar-23 19:33N 49°23' W 123°16'9 8.8
2017-Mar-23 18:33N 49°18' W 123°28'2020.2
2017-Mar-23 17:34N 49°12' W 123°57'9 9.4
2017-Mar-23 16:33N 49°16' W 123°44'1919.3
2017-Mar-23 15:34N 49°23' W 123°17'8 8.3
2017-Mar-23 14:33N 49°18' W 123°27'2120.6
2017-Mar-23 13:33N 49°12' W 123°57'0 0.3
2017-Mar-23 12:06N 49°12' W 123°57'0 0.0
2017-Mar-23 10:27N 49°12' W 123°57'1 0.1
2017-Mar-23 06:34N 49°12' W 123°57'2020.1
2017-Mar-23 05:33N 49°18' W 123°28'6 5.7
2017-Mar-23 04:33N 49°21' W 123°20'2120.5
2017-Mar-23 03:33N 49°14' W 123°50'1 1.0
2017-Mar-23 02:33N 49°14' W 123°51'1919.5
2017-Mar-23 01:34N 49°20' W 123°23'4 4.2
2017-Mar-23 00:34N 49°23' W 123°18'2019.6
2017-Mar-22 23:33N 49°14' W 123°45'8 8.2
2017-Mar-22 22:33N 49°12' W 123°57'1818.6
2017-Mar-22 21:33N 49°18' W 123°31'1010.4
2017-Mar-22 20:33N 49°23' W 123°16'0 0.0
2017-Mar-22 19:33N 49°23' W 123°16'9 9.3
2017-Mar-22 18:33N 49°18' W 123°28'2019.6
2017-Mar-22 17:33N 49°12' W 123°57'10 9.6
2017-Mar-22 16:33N 49°16' W 123°44'1919.5
2017-Mar-22 15:33N 49°23' W 123°16'8 8.2
2017-Mar-22 14:33N 49°18' W 123°27'2120.5
2017-Mar-22 13:33N 49°12' W 123°57'1 0.7
2017-Mar-22 12:25N 49°12' W 123°57'0 0.0
2017-Mar-22 08:19N 49°12' W 123°57'0 0.0
2017-Mar-22 06:25N 49°12' W 123°57'0 0.1
2017-Mar-22 05:33N 49°12' W 123°57'2019.6
2017-Mar-22 04:33N 49°18' W 123°29'10 9.5
2017-Mar-22 03:34N 49°23' W 123°17'2019.5
2017-Mar-22 02:33N 49°15' W 123°44'7 7.5
2017-Mar-22 01:33N 49°13' W 123°55'2020.2
2017-Mar-22 00:34N 49°19' W 123°25'7 7.0
2017-Mar-21 23:33N 49°23' W 123°17'1919.2
2017-Mar-21 22:33N 49°15' W 123°43'10 9.7
2017-Mar-21 21:33N 49°12' W 123°57'1313.4
2017-Mar-21 20:33N 49°17' W 123°38'1615.6
2017-Mar-21 19:34N 49°23' W 123°16'8 8.5
2017-Mar-21 18:34N 49°18' W 123°27'2020.1
2017-Mar-21 17:33N 49°12' W 123°57'9 8.7
2017-Mar-21 16:34N 49°16' W 123°45'2019.8
2017-Mar-21 15:34N 49°23' W 123°17'8 7.6
2017-Mar-21 14:33N 49°19' W 123°26'2120.7
2017-Mar-21 13:33N 49°12' W 123°57'1 0.9
2017-Mar-21 12:32N 49°12' W 123°57'0 0.0
2017-Mar-21 11:32N 49°12' W 123°57'0 0.0
2017-Mar-21 10:32N 49°12' W 123°57'0 0.0
2017-Mar-21 09:32N 49°12' W 123°57'0 0.0
2017-Mar-21 08:17N 49°12' W 123°57'0 0.0
2017-Mar-21 07:08N 49°12' W 123°57'0 0.0
2017-Mar-21 06:32N 49°12' W 123°57'2 2.1
2017-Mar-21 05:34N 49°13' W 123°55'2120.6
2017-Mar-21 04:34N 49°19' W 123°25'4 4.2
2017-Mar-21 03:33N 49°22' W 123°19'2020.1
2017-Mar-21 02:33N 49°14' W 123°48'4 4.0
2017-Mar-21 01:33N 49°13' W 123°54'2020.0
2017-Mar-21 00:33N 49°19' W 123°25'7 6.8
2017-Mar-20 23:34N 49°23' W 123°16'1918.7
2017-Mar-20 22:33N 49°15' W 123°42'1010.2
2017-Mar-20 21:32N 49°12' W 123°57'1414.1
2017-Mar-20 20:33N 49°17' W 123°38'1515.1
2017-Mar-20 19:34N 49°23' W 123°16'1010.0
2017-Mar-20 18:33N 49°17' W 123°29'1919.2
2017-Mar-20 17:33N 49°12' W 123°57'10 9.7
2017-Mar-20 16:33N 49°16' W 123°44'1919.4
2017-Mar-20 15:33N 49°23' W 123°16'8 8.3
2017-Mar-20 14:33N 49°18' W 123°27'2120.7
2017-Mar-20 13:33N 49°12' W 123°57'1 0.1
2017-Mar-20 09:33N 49°12' W 123°57'0 0.0
2017-Mar-20 08:27N 49°12' W 123°57'0 0.0
2017-Mar-20 07:27N 49°12' W 123°57'0 0.0
2017-Mar-20 06:33N 49°12' W 123°57'9 9.1
2017-Mar-20 05:33N 49°16' W 123°45'2019.7
2017-Mar-20 04:34N 49°23' W 123°17'8 8.3
2017-Mar-20 03:33N 49°18' W 123°27'2020.1
2017-Mar-20 02:33N 49°12' W 123°57'3 3.2
2017-Mar-20 01:33N 49°14' W 123°53'2020.1
2017-Mar-20 00:33N 49°20' W 123°23'6 5.7
2017-Mar-19 23:34N 49°23' W 123°17'2019.6
2017-Mar-19 22:33N 49°15' W 123°44'9 9.3
2017-Mar-19 21:33N 49°12' W 123°57'1413.8
2017-Mar-19 20:33N 49°17' W 123°38'1515.2
2017-Mar-19 19:33N 49°23' W 123°16'9 9.2
2017-Mar-19 18:33N 49°18' W 123°28'2019.9
2017-Mar-19 17:33N 49°12' W 123°57'9 8.9
2017-Mar-19 16:33N 49°16' W 123°45'2019.9
2017-Mar-19 15:34N 49°23' W 123°17'8 7.8
2017-Mar-19 14:34N 49°18' W 123°26'2120.6
2017-Mar-19 13:33N 49°12' W 123°57'1 0.7
2017-Mar-19 12:25N 49°12' W 123°57'0 0.0
2017-Mar-19 11:31N 49°12' W 123°57'0 0.0
2017-Mar-19 10:31N 49°12' W 123°57'0 0.0
2017-Mar-19 09:31N 49°12' W 123°57'0 0.0
2017-Mar-19 08:31N 49°12' W 123°57'0 0.0
2017-Mar-19 07:31N 49°12' W 123°57'0 0.0
2017-Mar-19 06:31N 49°12' W 123°57'0 0.4
2017-Mar-19 05:34N 49°12' W 123°57'2020.3
2017-Mar-19 04:34N 49°19' W 123°28'9 8.6
2017-Mar-19 03:33N 49°23' W 123°16'1918.6
2017-Mar-19 02:33N 49°15' W 123°42'1010.3
2017-Mar-19 01:33N 49°12' W 123°57'2019.9
2017-Mar-19 00:34N 49°19' W 123°29'9 8.9
2017-Mar-18 23:34N 49°23' W 123°16'1818.2
2017-Mar-18 22:33N 49°15' W 123°42'1110.8
2017-Mar-18 21:33N 49°12' W 123°57'1211.9
2017-Mar-18 20:34N 49°16' W 123°41'1717.1
2017-Mar-18 19:34N 49°23' W 123°16'10 9.7
2017-Mar-18 18:33N 49°17' W 123°29'1919.1
2017-Mar-18 17:33N 49°12' W 123°57'9 9.6
2017-Mar-18 16:33N 49°16' W 123°44'1919.5
2017-Mar-18 15:33N 49°23' W 123°17'8 7.8
2017-Mar-18 14:33N 49°18' W 123°26'2120.8
2017-Mar-18 13:33N 49°12' W 123°57'1 0.7
2017-Mar-18 12:24N 49°12' W 123°57'0 0.0
2017-Mar-18 11:29N 49°12' W 123°57'0 0.0
2017-Mar-18 10:33N 49°12' W 123°57'0 0.0
2017-Mar-18 09:32N 49°12' W 123°57'0 0.0
2017-Mar-18 08:33N 49°12' W 123°57'0 0.0
2017-Mar-18 07:32N 49°12' W 123°57'0 0.0
2017-Mar-18 06:29N 49°12' W 123°57'1212.4
2017-Mar-18 05:33N 49°17' W 123°41'1717.4
2017-Mar-18 04:34N 49°23' W 123°16'1010.4
2017-Mar-18 03:33N 49°17' W 123°30'1918.7
2017-Mar-18 02:33N 49°12' W 123°57'8 8.4
2017-Mar-18 01:34N 49°16' W 123°46'2019.9
2017-Mar-18 00:33N 49°23' W 123°17'4 3.9
2017-Mar-17 23:33N 49°20' W 123°21'2020.2
2017-Mar-17 22:33N 49°14' W 123°51'4 3.8
2017-Mar-17 21:33N 49°12' W 123°56'2020.0
2017-Mar-17 20:34N 49°19' W 123°27'8 8.0
2017-Mar-17 19:34N 49°23' W 123°16'1010.4
2017-Mar-17 18:33N 49°17' W 123°30'1918.7
2017-Mar-17 17:33N 49°12' W 123°57'1010.3
2017-Mar-17 16:33N 49°16' W 123°43'1918.8
2017-Mar-17 15:33N 49°23' W 123°16'8 8.4
2017-Mar-17 14:34N 49°18' W 123°27'2120.5
2017-Mar-17 13:33N 49°12' W 123°57'0 0.4
2017-Mar-17 12:33N 49°12' W 123°57'0 0.0
2017-Mar-17 11:21N 49°12' W 123°57'0 0.0
2017-Mar-17 10:33N 49°12' W 123°57'0 0.0
2017-Mar-17 09:33N 49°12' W 123°57'0 0.0
2017-Mar-17 08:33N 49°12' W 123°57'0 0.0
2017-Mar-17 07:33N 49°12' W 123°57'0 0.0
2017-Mar-17 06:33N 49°12' W 123°57'5 4.9
2017-Mar-17 05:33N 49°14' W 123°51'2020.7
2017-Mar-17 04:34N 49°20' W 123°21'0 0.4
2017-Mar-17 03:34N 49°20' W 123°20'2020.4
2017-Mar-17 02:34N 49°14' W 123°50'1 1.4
2017-Mar-17 01:33N 49°14' W 123°52'2020.0
2017-Mar-17 00:33N 49°20' W 123°23'5 5.5
2017-Mar-16 23:34N 49°23' W 123°16'1919.1
2017-Mar-16 22:33N 49°15' W 123°43'1010.0
2017-Mar-16 21:33N 49°12' W 123°57'1010.3
2017-Mar-16 20:34N 49°16' W 123°43'1918.7
2017-Mar-16 19:33N 49°23' W 123°16'8 8.4
2017-Mar-16 18:33N 49°18' W 123°27'2020.4
2017-Mar-16 17:33N 49°12' W 123°57'9 9.1
2017-Mar-16 16:33N 49°16' W 123°44'2019.6
2017-Mar-16 15:34N 49°23' W 123°16'8 8.4
2017-Mar-16 14:33N 49°18' W 123°27'2020.2
2017-Mar-16 13:33N 49°12' W 123°57'1 0.8
2017-Mar-16 12:32N 49°12' W 123°57'0 0.0
2017-Mar-16 10:17N 49°12' W 123°57'0 0.0
2017-Mar-16 09:32N 49°12' W 123°57'0 0.0
2017-Mar-16 08:32N 49°12' W 123°57'0 0.0
2017-Mar-16 07:32N 49°12' W 123°57'0 0.0
2017-Mar-16 06:29N 49°12' W 123°57'1 1.5
2017-Mar-16 05:34N 49°13' W 123°56'2020.3
2017-Mar-16 04:34N 49°19' W 123°26'6 5.8
2017-Mar-16 03:34N 49°22' W 123°19'2019.6
2017-Mar-16 02:33N 49°14' W 123°47'5 4.8
2017-Mar-16 01:33N 49°13' W 123°54'2020.4
2017-Mar-16 00:33N 49°19' W 123°24'6 6.1
2017-Mar-15 23:34N 49°23' W 123°16'1918.7
2017-Mar-15 22:33N 49°15' W 123°43'1010.4
2017-Mar-15 21:33N 49°12' W 123°57'1313.0
2017-Mar-15 20:33N 49°17' W 123°39'1616.0
2017-Mar-15 19:33N 49°23' W 123°16'1010.4
2017-Mar-15 18:34N 49°18' W 123°30'1918.6
2017-Mar-15 17:33N 49°12' W 123°57'1110.9
2017-Mar-15 16:33N 49°16' W 123°42'1818.2
2017-Mar-15 15:33N 49°23' W 123°16'1111.2
2017-Mar-15 14:33N 49°18' W 123°32'1817.7
2017-Mar-15 13:33N 49°12' W 123°57'0 0.0
2017-Mar-15 12:30N 49°12' W 123°57'0 0.0
2017-Mar-15 11:30N 49°12' W 123°57'0 0.0
2017-Mar-15 10:30N 49°12' W 123°57'0 0.0
2017-Mar-15 09:30N 49°12' W 123°57'0 0.0
2017-Mar-15 08:30N 49°12' W 123°57'0 0.0
2017-Mar-15 07:30N 49°12' W 123°57'0 0.0
2017-Mar-15 06:30N 49°12' W 123°57'1 0.6
2017-Mar-15 05:33N 49°12' W 123°57'2019.8
2017-Mar-15 04:33N 49°19' W 123°28'9 8.5
2017-Mar-15 03:34N 49°23' W 123°17'2020.0
2017-Mar-15 02:34N 49°15' W 123°45'7 6.9
2017-Mar-15 01:33N 49°13' W 123°55'2019.9
2017-Mar-15 00:33N 49°19' W 123°27'8 7.8
2017-Mar-14 23:33N 49°23' W 123°16'1918.9
2017-Mar-14 22:33N 49°16' W 123°43'1010.0
2017-Mar-14 21:33N 49°12' W 123°57'  

Dump ship's entire track history